createdAt,value
2019-01-23T00:00:43.241Z,3.78
2019-01-23T00:01:41.765Z,3.76
2019-01-23T00:02:40.294Z,3.96
2019-01-23T00:03:38.829Z,3.94
2019-01-23T00:04:37.381Z,4.05
2019-01-23T00:05:36.068Z,4.02
2019-01-23T00:06:34.651Z,4.12
2019-01-23T00:07:33.609Z,4.06
2019-01-23T00:08:32.153Z,4.06
2019-01-23T00:09:30.703Z,4
2019-01-23T00:10:29.315Z,3.91
2019-01-23T00:11:28.010Z,3.84
2019-01-23T00:12:26.572Z,3.79
2019-01-23T00:13:25.251Z,3.91
2019-01-23T00:14:23.931Z,3.9
2019-01-23T00:15:22.445Z,3.93
2019-01-23T00:16:21.679Z,3.83
2019-01-23T00:17:20.216Z,3.79
2019-01-23T00:18:18.798Z,3.78
2019-01-23T00:19:17.589Z,3.87
2019-01-23T00:20:16.128Z,3.79
2019-01-23T00:21:14.757Z,3.9
2019-01-23T00:22:13.521Z,3.79
2019-01-23T00:23:12.133Z,3.83
2019-01-23T00:24:10.871Z,3.79
2019-01-23T00:25:09.709Z,3.75
2019-01-23T00:26:08.238Z,3.78
2019-01-23T00:27:06.883Z,3.83
2019-01-23T00:28:05.561Z,3.9
2019-01-23T00:29:04.119Z,3.78
2019-01-23T00:30:02.676Z,3.79
2019-01-23T00:31:01.206Z,3.84
2019-01-23T00:31:59.766Z,3.84
2019-01-23T00:32:58.297Z,3.84
2019-01-23T00:33:57.044Z,3.9
2019-01-23T00:34:55.704Z,4.04
2019-01-23T00:35:54.242Z,3.97
2019-01-23T00:36:52.966Z,4.04
2019-01-23T00:37:51.627Z,4
2019-01-23T00:38:50.178Z,3.97
2019-01-23T00:39:48.722Z,4.02
2019-01-23T00:40:47.313Z,3.96
2019-01-23T00:41:45.860Z,4.11
2019-01-23T00:42:44.432Z,4
2019-01-23T00:43:42.987Z,3.96
2019-01-23T00:44:41.512Z,3.86
2019-01-23T00:45:40.044Z,4.04
2019-01-23T00:46:38.634Z,3.86
2019-01-23T00:47:37.293Z,3.8
2019-01-23T00:48:35.917Z,3.93
2019-01-23T00:49:34.487Z,4.11
2019-01-23T00:50:33.301Z,4.05
2019-01-23T00:51:31.831Z,3.88
2019-01-23T00:52:30.401Z,3.94
2019-01-23T00:53:28.941Z,3.96
2019-01-23T00:54:27.516Z,4
2019-01-23T00:55:26.124Z,4
2019-01-23T00:56:24.656Z,3.98
2019-01-23T00:57:23.251Z,4
2019-01-23T00:58:21.797Z,3.96
2019-01-23T00:59:20.351Z,3.9
2019-01-23T01:00:19.056Z,3.88
2019-01-23T01:01:17.811Z,3.94
2019-01-23T01:02:16.387Z,3.96
2019-01-23T01:03:15.143Z,4.05
2019-01-23T01:04:13.678Z,4
2019-01-23T01:05:12.203Z,3.96
2019-01-23T01:06:10.754Z,3.97
2019-01-23T01:07:09.292Z,3.96
2019-01-23T01:08:07.847Z,3.98
2019-01-23T01:09:06.395Z,3.98
2019-01-23T01:11:46.417Z,3.84
2019-01-23T01:12:44.968Z,3.9
2019-01-23T01:13:43.688Z,3.62
2019-01-23T01:14:42.225Z,3.7
2019-01-23T01:15:41.080Z,3.66
2019-01-23T01:16:39.709Z,3.73
2019-01-23T01:17:38.226Z,3.8
2019-01-23T01:18:36.781Z,3.8
2019-01-23T01:19:35.418Z,3.88
2019-01-23T01:20:33.955Z,3.83
2019-01-23T01:21:32.509Z,3.84
2019-01-23T01:22:31.135Z,3.88
2019-01-23T01:23:29.672Z,3.78
2019-01-23T01:24:28.230Z,3.84
2019-01-23T01:25:26.772Z,3.9
2019-01-23T01:26:25.378Z,3.93
2019-01-23T01:27:24.046Z,3.94
2019-01-23T01:28:22.599Z,3.9
2019-01-23T01:29:21.306Z,3.86
2019-01-23T01:30:19.846Z,3.78
2019-01-23T01:31:18.372Z,3.84
2019-01-23T01:32:17.225Z,3.96
2019-01-23T01:33:15.769Z,3.8
2019-01-23T01:34:14.312Z,3.9
2019-01-23T01:35:12.962Z,3.8
2019-01-23T01:36:11.797Z,3.78
2019-01-23T01:37:10.337Z,3.68
2019-01-23T01:38:08.991Z,3.76
2019-01-23T01:39:07.632Z,3.62
2019-01-23T01:40:06.156Z,3.61
2019-01-23T01:41:04.709Z,3.54
2019-01-23T01:42:03.236Z,3.68
2019-01-23T01:43:01.916Z,3.5
2019-01-23T01:44:00.458Z,3.54
2019-01-23T01:44:59.138Z,3.55
2019-01-23T01:45:57.810Z,3.48
2019-01-23T01:46:56.334Z,3.55
2019-01-23T01:47:55.109Z,3.55
2019-01-23T01:48:53.813Z,3.57
2019-01-23T01:49:52.360Z,3.47
2019-01-23T01:50:50.917Z,3.43
2019-01-23T01:51:49.458Z,3.42
2019-01-23T01:52:48.027Z,3.4
2019-01-23T01:53:46.640Z,3.32
2019-01-23T01:54:45.346Z,3.33
2019-01-23T01:55:43.968Z,3.43
2019-01-23T01:56:42.506Z,3.51
2019-01-23T01:57:41.258Z,3.24
2019-01-23T01:58:39.850Z,3.35
2019-01-23T01:59:38.375Z,3.43
2019-01-23T02:00:36.959Z,3.43
2019-01-23T02:01:35.655Z,3.39
2019-01-23T02:02:34.200Z,3.31
2019-01-23T02:03:32.767Z,3.26
2019-01-23T02:04:31.445Z,3.23
2019-01-23T02:05:30.032Z,3.23
2019-01-23T02:06:28.579Z,3.24
2019-01-23T02:07:27.113Z,3.35
2019-01-23T02:08:25.766Z,3.35
2019-01-23T02:09:24.313Z,3.4
2019-01-23T02:10:22.936Z,3.48
2019-01-23T02:11:21.661Z,3.43
2019-01-23T02:12:20.383Z,3.36
2019-01-23T02:13:19.032Z,3.47
2019-01-23T02:14:17.746Z,3.35
2019-01-23T02:15:16.278Z,3.23
2019-01-23T02:16:15.011Z,3.26
2019-01-23T02:17:13.702Z,3.36
2019-01-23T02:18:12.225Z,3.39
2019-01-23T02:19:10.757Z,3.29
2019-01-23T02:20:09.312Z,3.23
2019-01-23T02:21:07.907Z,3.39
2019-01-23T02:22:06.463Z,3.4
2019-01-23T02:23:05.289Z,3.48
2019-01-23T02:24:04.163Z,3.48
2019-01-23T02:25:02.681Z,3.52
2019-01-23T02:26:01.364Z,3.45
2019-01-23T02:26:59.919Z,3.42
2019-01-23T02:27:58.462Z,3.43
2019-01-23T02:28:56.997Z,3.62
2019-01-23T02:29:55.529Z,3.52
2019-01-23T02:30:54.083Z,3.51
2019-01-23T02:31:52.624Z,3.52
2019-01-23T02:32:51.166Z,3.58
2019-01-23T02:33:49.864Z,3.7
2019-01-23T02:34:48.411Z,3.6
2019-01-23T02:35:46.971Z,3.5
2019-01-23T02:36:45.753Z,3.33
2019-01-23T02:37:44.305Z,3.42
2019-01-23T02:38:42.945Z,3.52
2019-01-23T02:39:41.618Z,3.51
2019-01-23T02:40:40.144Z,3.36
2019-01-23T02:41:38.700Z,3.51
2019-01-23T02:42:37.249Z,3.28
2019-01-23T02:43:35.772Z,3.32
2019-01-23T02:44:34.327Z,3.23
2019-01-23T02:45:33.110Z,3.23
2019-01-23T02:46:31.768Z,3.24
2019-01-23T02:47:30.306Z,3.21
2019-01-23T02:48:29.075Z,3.17
2019-01-23T02:49:27.744Z,3.15
2019-01-23T02:50:26.265Z,2.95
2019-01-23T02:51:24.809Z,3.03
2019-01-23T02:52:23.358Z,2.96
2019-01-23T02:53:21.896Z,3.03
2019-01-23T02:54:20.437Z,2.97
2019-01-23T02:55:19.043Z,3
2019-01-23T02:56:17.519Z,2.92
2019-01-23T02:57:16.069Z,3.05
2019-01-23T02:58:14.647Z,2.99
2019-01-23T02:59:17.414Z,2.82
2019-01-23T03:00:12.022Z,2.96
2019-01-23T03:01:10.559Z,3
2019-01-23T03:02:09.316Z,3.11
2019-01-23T03:03:07.930Z,2.96
2019-01-23T03:04:06.488Z,3.13
2019-01-23T03:05:05.016Z,3.03
2019-01-23T03:06:03.616Z,3.11
2019-01-23T03:07:02.163Z,3.1
2019-01-23T03:08:00.732Z,3.13
2019-01-23T03:08:59.259Z,3.21
2019-01-23T03:09:57.798Z,3.21
2019-01-23T03:10:56.353Z,3.11
2019-01-23T03:11:54.974Z,3.08
2019-01-23T03:12:53.783Z,3.03
2019-01-23T03:13:52.327Z,3.08
2019-01-23T03:14:51.032Z,3.11
2019-01-23T03:15:49.766Z,3.11
2019-01-23T03:16:48.312Z,2.95
2019-01-23T03:17:46.846Z,3.05
2019-01-23T03:18:45.645Z,3.06
2019-01-23T03:19:44.188Z,3.03
2019-01-23T03:20:42.714Z,2.92
2019-01-23T03:21:41.616Z,3
2019-01-23T03:22:40.152Z,2.97
2019-01-23T03:23:38.698Z,2.96
2019-01-23T03:24:37.300Z,2.96
2019-01-23T03:25:36.018Z,2.99
2019-01-23T03:26:34.551Z,2.9
2019-01-23T03:27:33.290Z,2.9
2019-01-23T03:28:31.934Z,2.99
2019-01-23T03:29:30.490Z,3.05
2019-01-23T03:30:29.303Z,2.96
2019-01-23T03:31:27.946Z,2.96
2019-01-23T03:32:26.465Z,2.82
2019-01-23T03:33:25.011Z,2.79
2019-01-23T03:34:23.539Z,2.89
2019-01-23T03:35:22.080Z,2.92
2019-01-23T03:36:20.618Z,2.92
2019-01-23T03:37:19.169Z,2.96
2019-01-23T03:38:17.704Z,2.95
2019-01-23T03:39:16.245Z,3
2019-01-23T03:40:14.748Z,2.92
2019-01-23T03:41:13.298Z,2.92
2019-01-23T03:42:11.899Z,2.87
2019-01-23T03:43:10.432Z,2.79
2019-01-23T03:44:09.069Z,2.87
2019-01-23T03:45:07.775Z,2.87
2019-01-23T03:46:06.323Z,2.89
2019-01-23T03:47:04.999Z,2.89
2019-01-23T03:48:03.663Z,2.84
2019-01-23T03:49:02.202Z,2.84
2019-01-23T03:50:00.753Z,2.84
2019-01-23T03:50:59.338Z,2.92
2019-01-23T03:51:57.898Z,2.95
2019-01-23T03:52:56.605Z,2.92
2019-01-23T03:53:55.232Z,2.79
2019-01-23T03:54:53.784Z,2.87
2019-01-23T03:55:52.326Z,2.87
2019-01-23T03:56:50.860Z,2.85
2019-01-23T03:57:49.582Z,2.93
2019-01-23T03:58:48.157Z,2.95
2019-01-23T03:59:46.779Z,2.93
2019-01-23T04:00:45.461Z,3
2019-01-23T04:01:44.004Z,3.03
2019-01-23T04:02:42.553Z,3.06
2019-01-23T04:03:41.097Z,2.97
2019-01-23T04:04:39.672Z,2.97
2019-01-23T04:05:38.221Z,2.95
2019-01-23T04:06:37.018Z,2.96
2019-01-23T04:07:35.772Z,2.9
2019-01-23T04:08:34.315Z,2.99
2019-01-23T04:09:32.986Z,2.9
2019-01-23T04:10:31.615Z,2.97
2019-01-23T04:11:30.386Z,3.02
2019-01-23T04:12:29.010Z,2.96
2019-01-23T04:13:27.853Z,2.96
2019-01-23T04:14:26.379Z,2.87
2019-01-23T04:15:25.028Z,2.96
2019-01-23T04:16:23.726Z,2.99
2019-01-23T04:17:22.279Z,2.99
2019-01-23T04:18:20.996Z,3.08
2019-01-23T04:19:19.636Z,3.13
2019-01-23T04:20:18.196Z,2.96
2019-01-23T04:21:16.724Z,2.99
2019-01-23T04:22:15.648Z,2.97
2019-01-23T04:23:14.175Z,3.02
2019-01-23T04:24:12.692Z,3
2019-01-23T04:25:11.354Z,2.95
2019-01-23T04:26:10.088Z,2.92
2019-01-23T04:27:08.640Z,2.81
2019-01-23T04:28:07.322Z,2.87
2019-01-23T04:29:06.672Z,2.72
2019-01-23T04:30:04.511Z,2.79
2019-01-23T04:31:03.266Z,2.9
2019-01-23T04:32:01.900Z,2.89
2019-01-23T04:33:00.476Z,3.02
2019-01-23T04:33:59.025Z,3.06
2019-01-23T04:34:57.674Z,2.74
2019-01-23T04:35:56.230Z,2.79
2019-01-23T04:36:54.912Z,2.82
2019-01-23T04:37:53.641Z,2.89
2019-01-23T04:38:52.201Z,2.84
2019-01-23T04:39:50.830Z,2.79
2019-01-23T04:40:49.497Z,2.9
2019-01-23T04:41:47.990Z,2.84
2019-01-23T04:42:46.510Z,2.9
2019-01-23T04:43:45.139Z,2.75
2019-01-23T04:44:43.708Z,2.81
2019-01-23T04:45:43.156Z,2.85
2019-01-23T04:46:40.801Z,2.89
2019-01-23T04:47:39.345Z,2.9
2019-01-23T04:48:37.871Z,2.87
2019-01-23T04:49:36.399Z,2.85
2019-01-23T04:50:34.934Z,2.75
2019-01-23T04:51:33.667Z,2.75
2019-01-23T04:52:32.242Z,2.85
2019-01-23T04:53:30.880Z,2.81
2019-01-23T04:54:29.570Z,2.72
2019-01-23T04:55:28.145Z,2.79
2019-01-23T04:56:26.679Z,2.82
2019-01-23T04:57:25.371Z,2.69
2019-01-23T04:58:23.951Z,2.81
2019-01-23T04:59:22.485Z,2.82
2019-01-23T05:00:21.031Z,2.82
2019-01-23T05:01:19.661Z,2.6
2019-01-23T05:02:18.174Z,2.64
2019-01-23T05:03:16.851Z,2.63
2019-01-23T05:04:15.676Z,2.41
2019-01-23T05:05:14.216Z,2.49
2019-01-23T05:06:13.523Z,2.45
2019-01-23T05:07:12.183Z,2.39
2019-01-23T05:08:11.018Z,2.46
2019-01-23T05:09:09.643Z,2.53
2019-01-23T05:10:08.215Z,2.54
2019-01-23T05:11:06.963Z,2.64
2019-01-23T05:12:05.836Z,2.69
2019-01-23T05:13:04.336Z,2.61
2019-01-23T05:14:03.040Z,2.87
2019-01-23T05:15:01.650Z,2.82
2019-01-23T05:16:00.210Z,2.89
2019-01-23T05:16:58.697Z,2.85
2019-01-23T05:17:57.239Z,2.78
2019-01-23T05:18:55.890Z,2.75
2019-01-23T05:19:55.209Z,2.74
2019-01-23T05:20:53.771Z,2.84
2019-01-23T05:21:52.308Z,2.61
2019-01-23T05:24:15.508Z,2.72
2019-01-23T05:25:14.037Z,2.87
2019-01-23T05:26:12.589Z,2.87
2019-01-23T05:27:11.177Z,2.89
2019-01-23T05:28:09.745Z,2.75
2019-01-23T05:29:08.328Z,2.87
2019-01-23T05:30:06.852Z,2.81
2019-01-23T05:31:05.579Z,2.82
2019-01-23T05:32:04.133Z,2.92
2019-01-23T05:46:14.721Z,2.61
2019-01-23T05:47:13.408Z,2.81
2019-01-23T05:48:11.958Z,2.85
2019-01-23T05:49:10.507Z,2.87
2019-01-23T05:50:09.148Z,2.74
2019-01-23T05:51:07.777Z,2.85
2019-01-23T05:52:06.346Z,2.84
2019-01-23T05:53:04.875Z,2.72
2019-01-23T05:54:03.445Z,2.6
2019-01-23T05:55:01.986Z,2.72
2019-01-23T05:56:00.557Z,2.75
2019-01-23T05:56:59.242Z,2.82
2019-01-23T05:57:57.943Z,2.72
2019-01-23T05:58:56.597Z,2.69
2019-01-23T06:00:02.058Z,2.64
2019-01-23T06:00:54.000Z,2.69
2019-01-23T06:01:52.545Z,2.61
2019-01-23T06:02:51.123Z,2.66
2019-01-23T06:03:49.598Z,2.67
2019-01-23T06:04:48.156Z,2.63
2019-01-23T06:05:46.761Z,2.69
2019-01-23T06:06:45.560Z,2.71
2019-01-23T06:07:44.167Z,2.67
2019-01-23T06:08:42.915Z,2.79
2019-01-23T06:09:41.563Z,2.82
2019-01-23T06:10:40.104Z,2.77
2019-01-23T06:11:38.627Z,2.64
2019-01-23T06:12:37.183Z,2.71
2019-01-23T06:13:35.800Z,2.82
2019-01-23T06:14:34.335Z,2.87
2019-01-23T06:15:32.901Z,2.72
2019-01-23T06:16:31.558Z,2.59
2019-01-23T06:17:30.105Z,2.75
2019-01-23T06:18:28.759Z,2.63
2019-01-23T06:19:27.619Z,2.74
2019-01-23T06:20:26.149Z,2.71
2019-01-23T06:21:24.698Z,2.63
2019-01-23T06:22:23.393Z,2.78
2019-01-23T06:23:21.954Z,2.67
2019-01-23T06:24:20.491Z,2.63
2019-01-23T06:25:18.994Z,2.59
2019-01-23T06:26:17.759Z,2.67
2019-01-23T06:27:16.317Z,2.71
2019-01-23T06:28:14.871Z,2.6
2019-01-23T06:29:13.747Z,2.59
2019-01-23T06:30:12.299Z,2.49
2019-01-23T06:31:11.144Z,2.56
2019-01-23T06:32:09.677Z,2.52
2019-01-23T06:33:08.227Z,2.41
2019-01-23T06:34:06.776Z,2.49
2019-01-23T06:35:05.409Z,2.57
2019-01-23T06:36:04.126Z,2.66
2019-01-23T06:37:02.907Z,2.64
2019-01-23T06:38:01.555Z,2.69
2019-01-23T06:39:00.095Z,2.69
2019-01-23T06:39:58.639Z,2.67
2019-01-23T06:40:57.203Z,2.67
2019-01-23T06:41:55.734Z,2.61
2019-01-23T06:42:54.257Z,2.75
2019-01-23T06:43:52.804Z,2.63
2019-01-23T06:44:51.326Z,2.69
2019-01-23T06:45:49.887Z,2.6
2019-01-23T06:46:48.434Z,2.46
2019-01-23T06:47:46.996Z,2.64
2019-01-23T06:48:45.657Z,2.69
2019-01-23T06:49:44.202Z,2.54
2019-01-23T06:50:42.750Z,2.49
2019-01-23T06:51:41.705Z,2.54
2019-01-23T06:52:40.241Z,2.72
2019-01-23T06:53:38.809Z,2.77
2019-01-23T06:54:37.399Z,2.97
2019-01-23T06:55:35.936Z,2.87
2019-01-23T06:56:34.504Z,2.79
2019-01-23T06:57:33.009Z,2.95
2019-01-23T06:58:31.563Z,2.96
2019-01-23T06:59:30.051Z,2.96
2019-01-23T07:00:28.644Z,2.9
2019-01-23T07:01:27.306Z,2.95
2019-01-23T07:02:26.014Z,3.11
2019-01-23T07:03:24.559Z,3.13
2019-01-23T07:04:23.367Z,4.41
2019-01-23T07:05:22.122Z,4.75
2019-01-23T07:06:20.824Z,5.51
2019-01-23T07:07:19.357Z,5.68
2019-01-23T07:09:35.436Z,4.29
2019-01-23T07:10:33.960Z,3.78
2019-01-23T07:11:32.507Z,3.45
2019-01-23T07:12:31.183Z,3.39
2019-01-23T07:13:29.717Z,3.7
2019-01-23T07:14:28.260Z,4.24
2019-01-23T07:15:26.793Z,3.83
2019-01-23T07:16:25.327Z,4.06
2019-01-23T07:17:23.852Z,3.96
2019-01-23T07:18:22.407Z,3.48
2019-01-23T07:19:20.924Z,3.4
2019-01-23T07:20:19.437Z,3.31
2019-01-23T07:21:17.997Z,3.26
2019-01-23T07:22:16.517Z,3.26
2019-01-23T07:23:15.293Z,3.15
2019-01-23T07:24:14.064Z,3.02
2019-01-23T07:25:12.603Z,2.97
2019-01-23T07:26:11.245Z,3.06
2019-01-23T07:27:09.957Z,3.03
2019-01-23T07:28:08.461Z,2.96
2019-01-23T07:29:06.995Z,3.24
2019-01-23T07:30:05.577Z,3.26
2019-01-23T07:31:04.066Z,3.32
2019-01-23T07:32:02.653Z,3.17
2019-01-23T07:33:01.204Z,3.15
2019-01-23T07:33:59.752Z,3.14
2019-01-23T07:34:58.404Z,3.08
2019-01-23T07:35:56.973Z,3.17
2019-01-23T07:36:55.876Z,3.28
2019-01-23T07:37:54.402Z,3.24
2019-01-23T07:38:53.054Z,3.06
2019-01-23T07:39:51.656Z,3.28
2019-01-23T07:40:50.173Z,3.33
2019-01-23T07:41:48.715Z,3.43
2019-01-23T07:42:47.261Z,3.51
2019-01-23T07:43:45.788Z,3.93
2019-01-23T07:44:44.318Z,3.57
2019-01-23T07:45:42.863Z,3.54
2019-01-23T07:48:23.472Z,5.03
2019-01-23T07:49:22.018Z,4.73
2019-01-23T07:50:20.544Z,5.38
2019-01-23T07:51:19.241Z,5.74
2019-01-23T07:52:17.778Z,4.88
2019-01-23T07:53:16.467Z,4.32
2019-01-23T07:54:15.134Z,4.12
2019-01-23T07:55:13.990Z,3.97
2019-01-23T07:56:12.539Z,4.02
2019-01-23T08:16:48.507Z,4.05
2019-01-23T08:17:47.063Z,4.05
2019-01-23T08:18:45.627Z,3.96
2019-01-23T08:19:44.160Z,3.76
2019-01-23T08:20:42.707Z,3.93
2019-01-23T08:21:41.210Z,4.02
2019-01-23T08:22:39.769Z,4.08
2019-01-23T08:23:38.304Z,3.98
2019-01-23T08:24:37.018Z,4.09
2019-01-23T08:25:35.858Z,4.04
2019-01-23T08:26:34.400Z,4.15
2019-01-23T08:27:33.085Z,4.11
2019-01-23T08:28:31.765Z,4.05
2019-01-23T08:29:30.287Z,4.02
2019-01-23T08:30:28.850Z,3.98
2019-01-23T08:31:27.583Z,3.93
2019-01-23T08:32:26.146Z,3.75
2019-01-23T08:33:24.692Z,3.58
2019-01-23T08:34:23.371Z,3.55
2019-01-23T08:35:21.941Z,3.55
2019-01-23T08:36:20.478Z,3.57
2019-01-23T08:37:19.181Z,3.6
2019-01-23T08:38:17.833Z,3.57
2019-01-23T08:39:16.356Z,3.58
2019-01-23T08:40:14.908Z,3.6
2019-01-23T08:41:13.467Z,3.52
2019-01-23T08:42:12.003Z,3.5
2019-01-23T08:43:10.552Z,3.45
2019-01-23T08:44:09.100Z,3.43
2019-01-23T08:45:07.621Z,3.48
2019-01-23T08:46:06.161Z,3.51
2019-01-23T08:47:04.695Z,3.58
2019-01-23T08:48:03.401Z,3.65
2019-01-23T08:49:02.112Z,3.54
2019-01-23T08:50:00.634Z,3.65
2019-01-23T08:50:59.401Z,3.78
2019-01-23T08:51:58.085Z,3.7
2019-01-23T08:52:56.601Z,3.7
2019-01-23T08:53:55.183Z,3.75
2019-01-23T08:54:53.783Z,3.84
2019-01-23T08:55:53.639Z,3.75
2019-01-23T08:56:51.079Z,3.94
2019-01-23T08:57:49.845Z,3.78
2019-01-23T08:58:48.394Z,3.84
2019-01-23T08:59:47.012Z,3.75
2019-01-23T09:00:46.196Z,3.76
2019-01-23T09:01:44.263Z,3.96
2019-01-23T09:02:42.811Z,3.98
2019-01-23T09:03:41.347Z,4.06
2019-01-23T09:04:39.896Z,4.11
2019-01-23T09:05:38.665Z,4.04
2019-01-23T09:06:37.653Z,4.06
2019-01-23T09:07:36.199Z,3.91
2019-01-23T09:08:37.672Z,3.96
2019-01-23T09:09:33.374Z,3.93
2019-01-23T09:11:17.900Z,3.97
2019-01-23T09:12:16.426Z,3.97
2019-01-23T09:13:15.132Z,4.08
2019-01-23T09:14:13.998Z,4.08
2019-01-23T09:15:12.557Z,4
2019-01-23T09:16:11.266Z,3.88
2019-01-23T09:17:09.840Z,3.91
2019-01-23T09:18:08.379Z,3.83
2019-01-23T09:19:06.977Z,3.84
2019-01-23T09:20:05.501Z,3.87
2019-01-23T09:21:04.040Z,3.96
2019-01-23T09:22:02.528Z,4.06
2019-01-23T09:23:01.256Z,3.84
2019-01-23T09:23:59.957Z,3.76
2019-01-23T09:24:58.539Z,3.8
2019-01-23T09:25:57.287Z,3.94
2019-01-23T09:26:55.944Z,3.94
2019-01-23T09:27:54.580Z,4.06
2019-01-23T09:28:53.128Z,4.04
2019-01-23T09:29:51.654Z,4.11
2019-01-23T09:30:52.673Z,3.93
2019-01-23T09:31:48.829Z,3.86
2019-01-23T09:32:47.507Z,3.69
2019-01-23T09:33:46.166Z,3.65
2019-01-23T09:34:44.874Z,3.76
2019-01-23T09:35:43.591Z,3.84
2019-01-23T09:36:42.214Z,3.93
2019-01-23T09:37:41.008Z,4.05
2019-01-23T09:38:39.638Z,3.97
2019-01-23T09:39:38.209Z,4.02
2019-01-23T09:40:36.757Z,4.02
2019-01-23T09:41:35.553Z,4.09
2019-01-23T09:42:34.098Z,4.06
2019-01-23T09:43:32.663Z,4.05
2019-01-23T09:44:31.219Z,4.05
2019-01-23T09:45:29.823Z,4.2
2019-01-23T09:46:28.379Z,4.05
2019-01-23T09:47:26.898Z,4.06
2019-01-23T09:48:25.637Z,4.05
2019-01-23T09:49:24.200Z,4.11
2019-01-23T09:50:22.747Z,4.11
2019-01-23T09:53:03.209Z,4.29
2019-01-23T09:54:01.884Z,4.32
2019-01-23T09:55:00.421Z,4.36
2019-01-23T09:55:59.158Z,4.52
2019-01-23T09:56:58.146Z,4.51
2019-01-23T09:57:56.705Z,4.54
2019-01-23T09:58:55.432Z,4.6
2019-01-23T09:59:54.054Z,4.6
2019-01-23T10:00:52.574Z,4.29
2019-01-23T10:01:51.113Z,4.23
2019-01-23T10:02:49.853Z,4.22
2019-01-23T10:03:48.370Z,4.26
2019-01-23T10:04:46.987Z,4.27
2019-01-23T10:07:27.596Z,4.34
2019-01-23T10:08:26.135Z,4.4
2019-01-23T10:09:24.740Z,4.44
2019-01-23T10:10:23.353Z,4.58
2019-01-23T10:11:22.106Z,4.37
2019-01-23T10:12:20.652Z,4.42
2019-01-23T10:13:19.369Z,4.51
2019-01-23T10:14:17.993Z,4.65
2019-01-23T10:15:16.533Z,4.73
2019-01-23T10:34:40.844Z,4.52
2019-01-23T10:35:39.549Z,4.52
2019-01-23T10:36:38.095Z,4.65
2019-01-23T10:37:36.654Z,4.59
2019-01-23T10:38:35.183Z,4.63
2019-01-23T10:39:33.719Z,4.54
2019-01-23T10:40:32.270Z,4.24
2019-01-23T10:41:30.801Z,4.32
2019-01-23T10:42:29.561Z,4.27
2019-01-23T10:43:28.318Z,4.27
2019-01-23T10:44:27.010Z,4.3
2019-01-23T10:45:25.725Z,4.59
2019-01-23T10:46:24.272Z,4.59
2019-01-23T10:47:22.790Z,4.72
2019-01-23T10:48:21.343Z,4.5
2019-01-23T10:49:19.855Z,4.69
2019-01-23T10:50:18.430Z,4.89
2019-01-23T10:51:16.973Z,5
2019-01-23T10:52:15.541Z,5.17
2019-01-23T10:53:14.072Z,5.22
2019-01-23T10:54:12.674Z,5.06
2019-01-23T10:55:11.266Z,5.12
2019-01-23T10:56:09.903Z,5.03
2019-01-23T10:57:08.456Z,5.13
2019-01-23T10:58:07.005Z,5.2
2019-01-23T10:59:05.770Z,5.3
2019-01-23T11:00:04.334Z,5.28
2019-01-23T11:01:02.873Z,5.24
2019-01-23T11:02:01.470Z,5.27
2019-01-23T11:03:00.028Z,5.38
2019-01-23T11:03:58.669Z,5.3
2019-01-23T11:04:57.279Z,5.15
2019-01-23T11:05:55.893Z,5.18
2019-01-23T11:06:54.441Z,5.24
2019-01-23T11:07:52.989Z,5.18
2019-01-23T11:08:51.807Z,5.15
2019-01-23T11:09:50.488Z,5.21
2019-01-23T11:10:49.048Z,5.31
2019-01-23T11:11:47.691Z,5.33
2019-01-23T11:12:46.239Z,5.43
2019-01-23T11:13:44.843Z,5.48
2019-01-23T11:14:43.333Z,5.48
2019-01-23T11:15:41.932Z,5.49
2019-01-23T11:16:40.503Z,5.56
2019-01-23T11:17:39.173Z,5.63
2019-01-23T11:18:38.099Z,5.72
2019-01-23T11:19:36.693Z,5.68
2019-01-23T11:20:35.346Z,5.72
2019-01-23T11:21:33.934Z,5.71
2019-01-23T11:22:32.466Z,5.93
2019-01-23T11:23:31.250Z,5.93
2019-01-23T11:24:29.900Z,6.11
2019-01-23T11:25:28.424Z,5.96
2019-01-23T11:26:26.990Z,5.81
2019-01-23T11:27:25.625Z,5.76
2019-01-23T11:28:24.175Z,5.64
2019-01-23T11:29:22.718Z,5.64
2019-01-23T11:30:21.475Z,5.64
2019-01-23T11:31:20.378Z,5.58
2019-01-23T11:32:18.623Z,5.63
2019-01-23T11:33:17.301Z,5.42
2019-01-23T11:34:16.127Z,5.46
2019-01-23T11:36:56.236Z,5.6
2019-01-23T11:37:54.781Z,5.68
2019-01-23T11:38:53.378Z,5.38
2019-01-23T11:39:51.992Z,5.63
2019-01-23T11:40:50.531Z,5.65
2019-01-23T11:41:49.061Z,5.65
2019-01-23T11:42:47.624Z,5.82
2019-01-23T11:43:46.145Z,5.83
2019-01-23T11:44:44.728Z,5.94
2019-01-23T11:45:43.335Z,5.83
2019-01-23T11:48:23.912Z,5.74
2019-01-23T11:49:22.438Z,5.78
2019-01-23T11:50:22.997Z,5.45
2019-01-23T11:51:19.674Z,5.42
2019-01-23T11:52:18.236Z,5.48
2019-01-23T11:53:16.748Z,5.4
2019-01-23T11:54:15.284Z,5.51
2019-01-23T11:55:13.839Z,5.45
2019-01-23T11:56:12.371Z,5.4
2019-01-23T11:57:11.105Z,5.51
2019-01-23T11:58:09.885Z,5.45
2019-01-23T11:59:08.688Z,5.58
2019-01-23T12:00:07.228Z,5.39
2019-01-23T12:01:05.773Z,5.4
2019-01-23T12:02:04.344Z,5.4
2019-01-23T12:03:02.926Z,5.56
2019-01-23T12:04:01.523Z,5.61
2019-01-23T12:05:02.580Z,5.89
2019-01-23T12:07:42.723Z,5.57
2019-01-23T12:08:41.656Z,5.61
2019-01-23T12:09:40.327Z,5.67
2019-01-23T12:12:20.377Z,5.48
2019-01-23T12:13:19.318Z,5.46
2019-01-23T12:14:17.918Z,5.67
2019-01-23T12:15:16.452Z,5.85
2019-01-23T12:16:15.129Z,5.67
2019-01-23T12:17:14.002Z,5.85
2019-01-23T12:19:36.736Z,5.39
2019-01-23T12:20:35.291Z,5.61
2019-01-23T12:21:33.866Z,5.53
2019-01-23T12:32:16.652Z,5.4
2019-01-23T12:33:15.362Z,5.22
2019-01-23T12:34:14.026Z,5.21
2019-01-23T12:35:12.614Z,5.07
2019-01-23T12:36:11.269Z,5.17
2019-01-23T12:37:10.043Z,5.39
2019-01-23T12:38:08.576Z,5.45
2019-01-23T12:39:07.147Z,5.57
2019-01-23T12:40:05.814Z,5.61
2019-01-23T12:41:04.363Z,5.54
2019-01-23T12:42:02.916Z,5.65
2019-01-23T12:43:01.887Z,5.49
2019-01-23T12:44:00.468Z,5.36
2019-01-23T12:44:59.025Z,5.33
2019-01-23T12:45:57.617Z,5.39
2019-01-23T12:46:56.245Z,5.36
2019-01-23T12:47:54.819Z,5.25
2019-01-23T12:48:53.487Z,5.43
2019-01-23T13:00:39.758Z,5.22
2019-01-23T13:01:42.068Z,5.28
2019-01-23T13:02:37.096Z,5.2
2019-01-23T13:03:35.842Z,5.07
2019-01-23T13:04:34.406Z,5.2
2019-01-23T13:05:32.928Z,5.33
2019-01-23T13:06:31.483Z,5.54
2019-01-23T13:07:33.439Z,5.43
2019-01-23T13:08:28.674Z,5.38
2019-01-23T13:09:27.325Z,5.42
2019-01-23T13:10:26.059Z,5.33
2019-01-23T13:11:24.637Z,5.39
2019-01-23T13:12:23.292Z,5.46
2019-01-23T13:13:22.019Z,5.63
2019-01-23T13:14:20.562Z,5.49
2019-01-23T13:15:19.800Z,5.42
2019-01-23T13:18:00.254Z,5.24
2019-01-23T13:20:42.898Z,5.27
2019-01-23T13:21:41.456Z,4.96
2019-01-23T13:22:40.093Z,5.06
2019-01-23T13:23:38.640Z,5.27
2019-01-23T13:24:37.357Z,5.2
2019-01-23T13:25:36.090Z,5.07
2019-01-23T13:26:34.663Z,4.82
2019-01-23T13:27:33.343Z,5.12
2019-01-23T13:28:31.960Z,5.13
2019-01-23T13:29:30.523Z,5
2019-01-23T13:30:29.062Z,4.88
2019-01-23T13:31:27.588Z,4.77
2019-01-23T13:32:26.198Z,4.6
2019-01-23T13:33:24.748Z,4.7
2019-01-23T13:34:23.474Z,4.75
2019-01-23T13:35:22.157Z,4.82
2019-01-23T13:36:20.695Z,4.63
2019-01-23T13:37:19.418Z,4.85
2019-01-23T13:38:18.108Z,4.8
2019-01-23T13:39:16.928Z,4.72
2019-01-23T13:40:15.894Z,4.96
2019-01-23T13:41:14.469Z,5.04
2019-01-23T13:42:13.009Z,4.8
2019-01-23T13:43:11.690Z,4.94
2019-01-23T13:44:10.256Z,4.69
2019-01-23T13:45:08.783Z,4.84
2019-01-23T13:46:07.321Z,4.99
2019-01-23T13:47:05.851Z,5.13
2019-01-23T13:48:04.402Z,5.02
2019-01-23T13:50:39.572Z,5.24
2019-01-23T13:51:38.128Z,5.24
2019-01-23T13:52:36.647Z,5.21
2019-01-23T13:53:35.312Z,5.07
2019-01-23T13:54:34.037Z,5.25
2019-01-23T13:55:32.584Z,4.92
2019-01-23T13:56:31.239Z,4.91
2019-01-23T13:57:29.891Z,4.73
2019-01-23T13:58:28.438Z,4.72
2019-01-23T13:59:26.952Z,4.85
2019-01-23T14:00:25.504Z,4.51
2019-01-23T14:01:24.066Z,4.51
2019-01-23T14:02:22.626Z,4.51
2019-01-23T14:03:21.161Z,4.59
2019-01-23T14:04:19.671Z,4.58
2019-01-23T14:05:18.224Z,4.5
2019-01-23T14:06:16.754Z,4.63
2019-01-23T14:07:15.284Z,4.59
2019-01-23T14:08:13.852Z,4.63
2019-01-23T14:09:12.415Z,4.72
2019-01-23T14:10:10.950Z,4.63
2019-01-23T14:11:09.578Z,4.51
2019-01-23T14:12:08.271Z,4.59
2019-01-23T14:13:06.892Z,4.47
2019-01-23T14:14:05.604Z,4.67
2019-01-23T14:15:04.300Z,4.77
2019-01-23T14:16:02.853Z,4.77
2019-01-23T14:17:01.546Z,4.62
2019-01-23T14:18:00.082Z,4.67
2019-01-23T14:18:58.629Z,4.72
2019-01-23T14:19:57.928Z,4.77
2019-01-23T14:20:57.302Z,4.62
2019-01-23T14:21:55.943Z,4.62
2019-01-23T14:22:54.480Z,4.77
2019-01-23T14:23:53.168Z,4.72
2019-01-23T14:24:51.872Z,4.41
2019-01-23T14:25:50.445Z,4.5
2019-01-23T14:26:49.167Z,4.67
2019-01-23T14:27:47.816Z,4.48
2019-01-23T14:28:46.356Z,4.36
2019-01-23T14:29:44.909Z,4.37
2019-01-23T14:30:43.505Z,4.36
2019-01-23T14:31:42.035Z,4.33
2019-01-23T14:32:40.581Z,4.44
2019-01-23T14:33:39.192Z,4.55
2019-01-23T14:34:37.649Z,4.44
2019-01-23T14:35:36.194Z,4.45
2019-01-23T14:36:34.743Z,4.41
2019-01-23T14:37:33.444Z,4.37
2019-01-23T14:38:32.117Z,4.5
2019-01-23T14:39:30.685Z,4.26